Time;durP1;ratioP1;P1;durP2;ratioP2;P2;SDS_P1;SDS_P2;PMS_P1;PMS_P2;Temp;Humidity;BMP_temperature;BMP_pressure;BME280_temperature;BME280_humidity;BME280_pressure;Samples;Min_cycle;Max_cycle;Signal;HPM_P1;HPM_P2
2023/12/16 00:00:25;;;;;;;11.10;6.37;;;7.50;99.90;;;;;;5004050;28;20492;-62
2023/12/16 00:02:53;;;;;;;15.07;6.80;;;7.40;99.90;;;;;;5003911;28;20480;-62
2023/12/16 00:05:22;;;;;;;13.70;7.50;;;7.40;99.90;;;;;;4996395;28;20567;-63
2023/12/16 00:07:50;;;;;;;14.83;6.80;;;7.40;99.90;;;;;;4991244;28;20480;-62
2023/12/16 00:10:18;;;;;;;13.63;7.30;;;7.40;99.90;;;;;;5001470;28;20555;-62
2023/12/16 00:12:46;;;;;;;14.47;6.30;;;7.40;99.90;;;;;;4992875;28;20911;-61
2023/12/16 00:15:15;;;;;;;15.43;6.63;;;7.40;99.90;;;;;;5000533;28;20496;-60
2023/12/16 00:17:44;;;;;;;12.13;6.60;;;7.40;99.90;;;;;;5002541;28;20480;-61
2023/12/16 00:20:12;;;;;;;12.67;6.63;;;7.40;99.90;;;;;;5003066;28;20991;-61
2023/12/16 00:22:40;;;;;;;15.40;7.07;;;7.40;99.90;;;;;;5001233;28;20468;-61
2023/12/16 00:25:09;;;;;;;14.43;7.10;;;7.40;99.90;;;;;;4996625;28;20607;-61
2023/12/16 00:27:37;;;;;;;17.00;6.77;;;7.40;99.90;;;;;;5000614;28;20500;-61
2023/12/16 00:30:08;;;;;;;12.53;6.53;;;7.40;99.90;;;;;;5002165;28;20516;-61
2023/12/16 00:32:39;;;;;;;12.70;7.23;;;7.30;99.90;;;;;;5001466;28;20551;-61
2023/12/16 00:35:09;;;;;;;14.50;6.40;;;7.30;99.90;;;;;;5002194;28;20586;-62
2023/12/16 00:37:37;;;;;;;16.50;7.20;;;7.30;99.90;;;;;;5000310;28;20558;-61
2023/12/16 00:40:07;;;;;;;13.97;7.17;;;7.20;99.90;;;;;;5002637;28;20481;-61
2023/12/16 00:42:35;;;;;;;13.73;7.10;;;7.20;99.90;;;;;;4999667;28;20895;-61
2023/12/16 00:45:04;;;;;;;17.03;7.20;;;7.20;99.90;;;;;;5002228;28;20593;-61
2023/12/16 00:47:32;;;;;;;14.03;6.50;;;7.20;99.90;;;;;;5003422;28;20519;-62
2023/12/16 00:50:00;;;;;;;17.87;6.60;;;7.20;99.90;;;;;;4994462;28;20985;-62
2023/12/16 00:52:29;;;;;;;16.00;6.90;;;7.10;99.90;;;;;;4993947;28;20479;-62
2023/12/16 00:54:57;;;;;;;16.20;6.30;;;7.10;99.90;;;;;;4999544;28;20487;-61
2023/12/16 00:57:25;;;;;;;13.70;7.50;;;7.10;99.90;;;;;;5002842;28;20483;-63
2023/12/16 00:59:53;;;;;;;10.70;6.70;;;7.10;99.90;;;;;;4999293;28;20496;-62
2023/12/16 01:02:21;;;;;;;13.83;7.00;;;7.20;99.90;;;;;;5000041;28;21039;-62
2023/12/16 01:04:50;;;;;;;11.50;7.07;;;7.20;99.90;;;;;;4999895;28;20488;-62
2023/12/16 01:07:18;;;;;;;16.10;6.80;;;7.10;99.90;;;;;;4999474;28;22051;-63
2023/12/16 01:09:47;;;;;;;13.40;5.83;;;7.10;99.90;;;;;;4997887;28;20556;-63
2023/12/16 01:12:15;;;;;;;16.40;7.20;;;7.10;99.90;;;;;;5001916;28;20476;-63
2023/12/16 01:14:43;;;;;;;14.00;6.67;;;7.10;99.90;;;;;;5000163;28;21059;-61
2023/12/16 01:17:11;;;;;;;16.97;6.80;;;7.10;99.90;;;;;;5004085;28;20487;-62
2023/12/16 01:19:39;;;;;;;12.37;6.10;;;7.10;99.90;;;;;;5000583;28;20512;-61
2023/12/16 01:22:08;;;;;;;11.53;5.90;;;7.10;99.90;;;;;;5000868;28;20504;-62
2023/12/16 01:24:37;;;;;;;12.40;6.10;;;7.10;99.90;;;;;;4997531;28;20914;-63
2023/12/16 01:27:06;;;;;;;12.93;5.80;;;7.10;99.90;;;;;;5003931;28;20526;-63
2023/12/16 01:29:34;;;;;;;10.00;5.50;;;7.10;99.90;;;;;;5000415;28;20543;-62
2023/12/16 01:32:03;;;;;;;14.10;5.90;;;7.10;99.90;;;;;;5000048;28;20504;-61
2023/12/16 01:34:31;;;;;;;9.37;5.60;;;7.10;99.90;;;;;;4999300;28;20484;-62
2023/12/16 01:36:59;;;;;;;14.00;6.37;;;7.00;99.90;;;;;;5001521;28;20470;-63
2023/12/16 01:39:27;;;;;;;10.80;5.70;;;7.10;99.90;;;;;;5002115;28;21265;-62
2023/12/16 01:41:55;;;;;;;10.97;5.97;;;7.00;99.90;;;;;;4993744;28;20504;-62
2023/12/16 01:44:24;;;;;;;14.00;5.93;;;7.00;99.90;;;;;;5001097;28;20484;-62
2023/12/16 01:46:53;;;;;;;11.37;5.37;;;7.00;99.90;;;;;;5001486;28;20571;-62
2023/12/16 01:49:22;;;;;;;13.47;5.57;;;7.00;99.90;;;;;;5002038;28;20933;-61
2023/12/16 01:51:51;;;;;;;11.63;5.23;;;7.00;99.90;;;;;;5000804;28;20482;-62
2023/12/16 01:54:19;;;;;;;10.77;5.67;;;7.00;99.90;;;;;;4999461;28;20500;-62
2023/12/16 01:56:56;;;;;;;8.57;4.97;;;7.00;99.90;;;;;;4998395;28;20523;-62
2023/12/16 01:59:27;;;;;;;12.27;4.53;;;7.00;99.90;;;;;;4997912;28;20597;-62
2023/12/16 02:01:55;;;;;;;12.03;5.03;;;7.00;99.90;;;;;;4995657;28;20476;-63
2023/12/16 02:04:24;;;;;;;9.47;4.90;;;7.00;99.90;;;;;;5000491;28;20546;-61
2023/12/16 02:06:52;;;;;;;12.30;4.80;;;7.00;99.90;;;;;;5003059;28;20480;-62
2023/12/16 02:09:21;;;;;;;9.30;4.00;;;6.90;99.90;;;;;;5001973;28;21757;-61
2023/12/16 02:11:49;;;;;;;10.20;4.63;;;7.00;99.90;;;;;;5003043;28;20476;-62
2023/12/16 02:14:17;;;;;;;15.93;6.17;;;7.00;99.90;;;;;;5002975;28;20493;-62
2023/12/16 02:16:47;;;;;;;7.90;3.70;;;7.00;99.90;;;;;;5002472;28;20496;-62
2023/12/16 02:19:24;;;;;;;10.00;4.03;;;7.00;99.90;;;;;;5003963;28;21366;-62
2023/12/16 02:21:52;;;;;;;13.50;5.30;;;7.00;99.90;;;;;;5002678;28;20475;-61
2023/12/16 02:24:22;;;;;;;9.53;4.60;;;7.00;99.90;;;;;;4999372;28;20827;-62
2023/12/16 02:26:50;;;;;;;10.30;3.90;;;7.00;99.90;;;;;;5001489;28;20582;-63
2023/12/16 02:29:18;;;;;;;8.80;4.20;;;7.00;99.90;;;;;;5005412;28;20551;-62
2023/12/16 02:31:46;;;;;;;11.53;4.90;;;7.00;99.90;;;;;;5002253;28;20530;-62
2023/12/16 02:34:14;;;;;;;10.83;4.43;;;7.00;99.90;;;;;;5004269;28;20499;-63
2023/12/16 02:36:42;;;;;;;7.30;4.60;;;7.00;99.90;;;;;;5004366;28;20575;-62
2023/12/16 02:39:10;;;;;;;8.77;4.20;;;7.00;99.90;;;;;;5002883;28;20582;-62
2023/12/16 02:41:39;;;;;;;10.60;4.33;;;7.00;99.90;;;;;;5002177;28;20474;-62
2023/12/16 02:44:07;;;;;;;10.17;4.33;;;7.10;99.90;;;;;;5003407;28;20602;-62
2023/12/16 02:46:35;;;;;;;10.47;4.70;;;7.00;99.90;;;;;;5004404;28;20524;-62
2023/12/16 02:49:03;;;;;;;7.73;3.97;;;7.00;99.90;;;;;;5003338;28;20472;-62
2023/12/16 02:51:31;;;;;;;11.43;4.20;;;7.10;99.90;;;;;;5005859;28;20821;-62
2023/12/16 02:53:59;;;;;;;9.53;4.40;;;7.10;99.90;;;;;;5002581;28;20507;-62
2023/12/16 02:56:27;;;;;;;10.63;4.20;;;7.10;99.90;;;;;;5001200;28;21087;-62
2023/12/16 02:58:57;;;;;;;9.77;4.17;;;7.10;99.90;;;;;;5006642;28;20574;-62
2023/12/16 03:01:24;;;;;;;7.50;3.90;;;7.10;99.90;;;;;;4999240;28;20496;-62
2023/12/16 03:03:53;;;;;;;9.00;3.70;;;7.10;99.90;;;;;;5005526;28;20875;-61
2023/12/16 03:06:21;;;;;;;7.33;3.60;;;7.10;99.90;;;;;;5003458;28;20500;-62
2023/12/16 03:08:49;;;;;;;9.10;3.57;;;7.10;99.90;;;;;;5005125;28;21094;-61
2023/12/16 03:11:17;;;;;;;11.93;3.53;;;7.10;99.90;;;;;;5002675;28;20560;-61
2023/12/16 03:13:45;;;;;;;5.93;3.63;;;7.20;99.90;;;;;;5000970;28;21084;-62
2023/12/16 03:16:14;;;;;;;5.67;2.93;;;7.20;99.90;;;;;;5000448;28;20573;-61
2023/12/16 03:18:42;;;;;;;11.80;4.57;;;7.20;99.90;;;;;;5004096;28;20476;-62
2023/12/16 03:21:10;;;;;;;6.27;3.33;;;7.20;99.90;;;;;;5005245;28;20495;-61
2023/12/16 03:23:39;;;;;;;5.60;3.17;;;7.20;99.90;;;;;;5004645;28;20588;-62
2023/12/16 03:26:07;;;;;;;9.70;3.43;;;7.20;99.90;;;;;;5002287;28;20571;-61
2023/12/16 03:28:35;;;;;;;6.77;2.90;;;7.20;99.90;;;;;;4998910;28;20980;-61
2023/12/16 03:31:04;;;;;;;7.00;3.10;;;7.20;99.90;;;;;;5002126;28;20738;-62
2023/12/16 03:33:33;;;;;;;7.33;4.00;;;7.20;99.90;;;;;;5000115;28;20476;-63
2023/12/16 03:36:01;;;;;;;8.17;3.47;;;7.20;99.90;;;;;;5005002;28;20483;-61
2023/12/16 03:38:31;;;;;;;7.00;3.03;;;7.20;99.90;;;;;;5004029;28;20507;-62
2023/12/16 03:40:59;;;;;;;4.20;2.83;;;7.20;99.90;;;;;;5003695;28;20507;-62
2023/12/16 03:43:28;;;;;;;7.10;3.50;;;7.20;99.90;;;;;;5002732;28;20861;-61
2023/12/16 03:45:56;;;;;;;6.33;3.20;;;7.30;99.90;;;;;;5002511;28;20522;-62
2023/12/16 03:48:24;;;;;;;8.23;3.07;;;7.30;99.90;;;;;;5006066;28;20484;-61
2023/12/16 03:50:53;;;;;;;8.40;3.20;;;7.30;99.90;;;;;;5003177;28;20472;-61
2023/12/16 03:53:22;;;;;;;8.77;3.20;;;7.30;99.90;;;;;;5003064;28;21736;-62
2023/12/16 03:55:50;;;;;;;8.03;3.17;;;7.30;99.90;;;;;;4999036;28;20519;-60
2023/12/16 03:58:18;;;;;;;6.27;3.27;;;7.30;99.90;;;;;;5000265;28;20481;-61
2023/12/16 04:00:46;;;;;;;6.50;3.30;;;7.30;99.90;;;;;;4999873;28;21039;-62
2023/12/16 04:03:14;;;;;;;8.80;3.30;;;7.30;99.90;;;;;;5000670;28;20484;-61
2023/12/16 04:05:43;;;;;;;8.63;3.43;;;7.30;99.90;;;;;;5001229;28;20496;-62
2023/12/16 04:08:12;;;;;;;11.93;3.73;;;7.30;99.90;;;;;;5006192;28;20472;-63
2023/12/16 04:10:40;;;;;;;7.80;3.10;;;7.40;99.90;;;;;;5002482;28;20552;-62
2023/12/16 04:13:08;;;;;;;7.23;3.10;;;7.40;99.90;;;;;;4997217;28;20975;-61
2023/12/16 04:15:36;;;;;;;6.70;4.03;;;7.40;99.90;;;;;;5004153;28;20496;-62
2023/12/16 04:18:05;;;;;;;6.10;2.90;;;7.40;99.90;;;;;;5002501;28;20474;-63
2023/12/16 04:20:33;;;;;;;5.93;3.83;;;7.40;99.90;;;;;;5002877;28;24336;-62
2023/12/16 04:23:02;;;;;;;9.13;3.10;;;7.40;99.90;;;;;;4991794;28;20609;-61
2023/12/16 04:25:31;;;;;;;5.23;3.27;;;7.40;99.90;;;;;;4998249;28;20558;-62
2023/12/16 04:27:59;;;;;;;8.00;3.23;;;7.40;99.90;;;;;;4998698;28;20476;-62
2023/12/16 04:30:27;;;;;;;7.67;3.70;;;7.40;99.90;;;;;;5000782;28;20472;-61
2023/12/16 04:32:56;;;;;;;8.03;4.30;;;7.40;99.90;;;;;;5004884;28;20976;-61
2023/12/16 04:35:24;;;;;;;9.77;3.70;;;7.40;99.90;;;;;;5001798;28;20496;-62
2023/12/16 04:37:52;;;;;;;10.87;3.77;;;7.40;99.90;;;;;;5001365;28;22672;-63
2023/12/16 04:40:21;;;;;;;9.40;3.60;;;7.40;99.90;;;;;;5001811;28;20496;-62
2023/12/16 04:42:50;;;;;;;8.27;3.73;;;7.30;99.90;;;;;;4998583;28;20472;-62
2023/12/16 04:45:18;;;;;;;4.13;3.50;;;7.30;99.90;;;;;;5000063;28;20488;-62
2023/12/16 04:47:46;;;;;;;6.10;3.70;;;7.30;99.90;;;;;;5003574;28;20468;-62
2023/12/16 04:50:15;;;;;;;5.60;3.47;;;7.30;99.90;;;;;;5002548;28;20472;-62
2023/12/16 04:52:43;;;;;;;12.70;4.60;;;7.30;99.90;;;;;;5000560;28;20554;-63
2023/12/16 04:55:11;;;;;;;8.37;4.33;;;7.30;99.90;;;;;;5001808;28;20547;-62
2023/12/16 04:57:40;;;;;;;5.03;3.10;;;7.30;99.90;;;;;;5001815;28;20546;-63
2023/12/16 05:00:11;;;;;;;10.20;3.70;;;7.30;99.90;;;;;;5002863;28;20484;-62
2023/12/16 05:02:39;;;;;;;8.60;4.80;;;7.30;99.90;;;;;;4999535;28;20839;-62
2023/12/16 05:05:07;;;;;;;7.10;3.50;;;7.30;99.90;;;;;;5000688;28;20492;-63
2023/12/16 05:07:38;;;;;;;7.23;3.90;;;7.30;99.90;;;;;;5001725;28;20590;-62
2023/12/16 05:10:10;;;;;;;5.87;3.00;;;7.30;99.90;;;;;;5000703;28;21131;-63
2023/12/16 05:12:40;;;;;;;9.50;3.60;;;7.30;99.90;;;;;;5003670;28;20469;-62
2023/12/16 05:15:10;;;;;;;5.97;3.40;;;7.30;99.90;;;;;;4999948;28;21534;-63
2023/12/16 05:17:37;;;;;;;6.77;3.10;;;7.30;99.90;;;;;;5003206;28;20472;-62
2023/12/16 05:20:07;;;;;;;6.83;3.60;;;7.30;99.90;;;;;;5005526;28;20862;-63
2023/12/16 05:22:35;;;;;;;7.93;3.70;;;7.30;99.90;;;;;;5003407;28;20502;-62
2023/12/16 05:25:04;;;;;;;4.80;3.40;;;7.30;99.90;;;;;;5003480;28;20567;-62
2023/12/16 05:27:32;;;;;;;6.80;3.53;;;7.30;99.90;;;;;;5001556;28;20565;-63
2023/12/16 05:30:02;;;;;;;7.90;3.70;;;7.30;99.90;;;;;;5000212;28;20575;-63
2023/12/16 05:32:32;;;;;;;6.97;4.63;;;7.30;99.90;;;;;;5001610;28;21074;-61
2023/12/16 05:35:00;;;;;;;6.53;2.90;;;7.40;99.90;;;;;;4998580;28;20623;-62
2023/12/16 05:37:28;;;;;;;5.90;3.10;;;7.40;99.90;;;;;;5001980;28;20876;-61
2023/12/16 05:39:57;;;;;;;6.50;3.00;;;7.40;99.90;;;;;;5000161;28;20512;-62
2023/12/16 05:42:25;;;;;;;8.60;3.90;;;7.40;99.90;;;;;;5001891;28;20584;-61
2023/12/16 05:44:54;;;;;;;5.90;3.03;;;7.40;99.90;;;;;;5001813;28;20583;-63
2023/12/16 05:47:22;;;;;;;7.20;4.40;;;7.40;99.90;;;;;;4996854;28;20555;-62
2023/12/16 05:49:51;;;;;;;8.30;3.00;;;7.40;99.90;;;;;;5001838;28;20574;-63
2023/12/16 05:52:19;;;;;;;7.03;3.40;;;7.40;99.90;;;;;;5000003;28;20475;-63
2023/12/16 05:54:47;;;;;;;10.60;3.50;;;7.40;99.90;;;;;;4998967;28;20484;-61
2023/12/16 05:57:15;;;;;;;5.80;2.60;;;7.40;99.90;;;;;;5000682;28;20478;-62
2023/12/16 05:59:43;;;;;;;5.80;3.00;;;7.40;99.90;;;;;;4997162;28;20558;-62
2023/12/16 06:02:11;;;;;;;7.03;2.57;;;7.40;99.90;;;;;;4999392;28;20602;-62
2023/12/16 06:04:39;;;;;;;5.73;2.90;;;7.40;99.90;;;;;;4998251;28;20918;-61
2023/12/16 06:07:09;;;;;;;7.30;3.37;;;7.40;99.90;;;;;;4998038;28;20472;-62
2023/12/16 06:09:37;;;;;;;8.33;2.40;;;7.30;99.90;;;;;;5001438;28;20545;-63
2023/12/16 06:12:05;;;;;;;9.00;3.17;;;7.30;99.90;;;;;;5002042;28;20471;-62
2023/12/16 06:14:33;;;;;;;4.63;2.90;;;7.30;99.90;;;;;;4998247;28;20484;-62
2023/12/16 06:17:01;;;;;;;6.90;3.10;;;7.30;99.90;;;;;;4997634;28;22012;-62
2023/12/16 06:19:29;;;;;;;6.80;2.57;;;7.30;99.90;;;;;;4999910;28;20476;-62
2023/12/16 06:21:58;;;;;;;5.33;2.80;;;7.30;99.90;;;;;;4996516;28;20500;-63
2023/12/16 06:24:27;;;;;;;6.80;2.80;;;7.30;99.90;;;;;;4997218;28;20490;-62
2023/12/16 06:26:55;;;;;;;4.37;2.73;;;7.30;99.90;;;;;;5002768;28;20468;-63
2023/12/16 06:29:23;;;;;;;5.40;2.93;;;7.20;99.90;;;;;;4997605;28;20494;-63
2023/12/16 06:31:51;;;;;;;8.43;2.90;;;7.30;99.90;;;;;;4999084;28;20562;-63
2023/12/16 06:34:19;;;;;;;5.87;2.70;;;7.30;99.90;;;;;;4999522;28;20488;-62
2023/12/16 06:36:48;;;;;;;5.73;2.77;;;7.20;99.90;;;;;;4999395;28;20488;-62
2023/12/16 06:39:16;;;;;;;7.70;3.07;;;7.20;99.90;;;;;;5001805;28;20487;-62
2023/12/16 06:41:45;;;;;;;5.60;2.63;;;7.20;99.90;;;;;;5000393;28;20492;-62
2023/12/16 06:44:14;;;;;;;9.93;3.70;;;7.20;99.90;;;;;;4995183;28;20591;-62
2023/12/16 06:46:42;;;;;;;5.00;2.40;;;7.20;99.90;;;;;;4998617;28;20492;-62
2023/12/16 06:49:10;;;;;;;4.37;2.73;;;7.20;99.90;;;;;;5000083;28;20555;-62
2023/12/16 06:51:38;;;;;;;6.33;3.20;;;7.20;99.90;;;;;;5002024;28;20479;-63
2023/12/16 06:54:05;;;;;;;5.93;2.80;;;7.20;99.90;;;;;;4998571;28;20571;-62
2023/12/16 06:56:33;;;;;;;4.77;2.90;;;7.30;99.90;;;;;;5002638;28;21455;-63
2023/12/16 06:59:02;;;;;;;9.07;3.50;;;7.30;99.90;;;;;;5002508;28;20571;-62
2023/12/16 07:01:30;;;;;;;5.50;3.50;;;7.30;99.90;;;;;;4996967;28;20555;-61
2023/12/16 07:03:58;;;;;;;6.00;3.10;;;7.30;99.90;;;;;;4998689;28;20566;-62
2023/12/16 07:06:27;;;;;;;6.13;2.83;;;7.30;99.90;;;;;;4995061;28;20538;-63
2023/12/16 07:08:55;;;;;;;6.27;2.80;;;7.30;99.90;;;;;;5004267;28;20552;-62
2023/12/16 07:11:23;;;;;;;4.43;3.37;;;7.30;99.90;;;;;;4990289;28;20981;-62
2023/12/16 07:13:51;;;;;;;7.50;2.90;;;7.30;99.90;;;;;;4998382;28;20508;-62
2023/12/16 07:16:20;;;;;;;5.73;2.90;;;7.30;99.90;;;;;;4999996;28;21095;-62
2023/12/16 07:18:48;;;;;;;6.93;3.53;;;7.30;99.90;;;;;;5003182;28;20468;-62
2023/12/16 07:21:17;;;;;;;6.03;3.00;;;7.30;99.90;;;;;;5004088;28;20475;-62
2023/12/16 07:23:45;;;;;;;6.00;3.13;;;7.30;99.90;;;;;;4999141;28;20496;-62
2023/12/16 07:26:14;;;;;;;6.20;3.70;;;7.30;99.90;;;;;;5002586;28;20524;-62
2023/12/16 07:28:41;;;;;;;7.73;3.47;;;7.30;99.90;;;;;;5004325;28;20526;-62
2023/12/16 07:31:09;;;;;;;8.90;3.40;;;7.40;99.90;;;;;;4992110;28;21481;-62
2023/12/16 07:33:39;;;;;;;7.80;3.30;;;7.40;99.90;;;;;;4998202;28;20531;-60
2023/12/16 07:36:08;;;;;;;7.27;3.83;;;7.40;99.90;;;;;;4990116;28;20586;-61
2023/12/16 07:38:36;;;;;;;6.00;3.37;;;7.40;99.90;;;;;;4997830;28;20504;-61
2023/12/16 07:41:04;;;;;;;7.27;3.03;;;7.40;99.90;;;;;;5000102;28;21089;-62
2023/12/16 07:43:32;;;;;;;6.87;3.03;;;7.50;99.90;;;;;;5001426;28;20480;-63
2023/12/16 07:46:01;;;;;;;7.23;3.53;;;7.50;99.90;;;;;;5002579;28;20637;-62
2023/12/16 07:48:29;;;;;;;5.80;2.87;;;7.50;99.90;;;;;;4997395;28;20468;-62
2023/12/16 07:50:58;;;;;;;6.40;4.40;;;7.50;99.90;;;;;;5000656;28;20936;-62
2023/12/16 07:53:26;;;;;;;7.50;3.70;;;7.50;99.90;;;;;;4998562;28;20567;-62
2023/12/16 07:55:54;;;;;;;5.23;2.97;;;7.50;99.90;;;;;;5001267;28;20579;-62
2023/12/16 07:58:22;;;;;;;6.00;3.60;;;7.50;99.90;;;;;;5001877;28;20464;-60
2023/12/16 08:00:50;;;;;;;9.30;3.60;;;7.50;99.90;;;;;;4991242;28;20476;-59
2023/12/16 08:03:19;;;;;;;7.93;3.60;;;7.60;99.90;;;;;;4995176;28;20492;-63
2023/12/16 08:05:47;;;;;;;5.97;3.53;;;7.60;99.90;;;;;;5003392;28;20488;-63
2023/12/16 08:08:16;;;;;;;7.93;3.20;;;7.60;99.90;;;;;;4999673;28;20476;-63
2023/12/16 08:10:44;;;;;;;7.97;4.57;;;7.60;99.90;;;;;;4999559;28;20472;-62
2023/12/16 08:13:12;;;;;;;7.50;3.33;;;7.60;99.90;;;;;;4999077;28;20504;-61
2023/12/16 08:15:40;;;;;;;7.37;3.90;;;7.60;99.90;;;;;;4997005;28;20492;-61
2023/12/16 08:18:09;;;;;;;5.20;3.40;;;7.60;99.90;;;;;;4996434;28;20472;-60
2023/12/16 08:20:38;;;;;;;6.10;3.40;;;7.60;99.90;;;;;;5002835;28;22036;-60
2023/12/16 08:23:07;;;;;;;9.63;4.00;;;7.60;99.90;;;;;;5001698;28;20583;-61
2023/12/16 08:25:37;;;;;;;5.93;4.27;;;7.60;99.90;;;;;;4998680;28;20502;-61
2023/12/16 08:28:05;;;;;;;7.93;4.33;;;7.60;99.90;;;;;;5003304;28;20475;-60
2023/12/16 08:30:33;;;;;;;7.97;3.93;;;7.50;99.90;;;;;;4999535;28;20476;-61
2023/12/16 08:33:01;;;;;;;8.30;4.40;;;7.50;99.90;;;;;;4992735;28;20473;-60
2023/12/16 08:35:29;;;;;;;11.27;3.80;;;7.50;99.90;;;;;;4993967;28;20527;-61
2023/12/16 08:37:57;;;;;;;9.73;4.07;;;7.60;99.90;;;;;;4998820;28;20475;-60
2023/12/16 08:40:26;;;;;;;9.43;4.63;;;7.60;99.90;;;;;;5003928;28;20502;-61
2023/12/16 08:42:55;;;;;;;9.57;4.40;;;7.60;99.90;;;;;;5001472;28;20568;-61
2023/12/16 08:45:23;;;;;;;9.00;4.30;;;7.60;99.90;;;;;;4997795;28;20491;-60
2023/12/16 08:47:51;;;;;;;7.87;4.50;;;7.60;99.90;;;;;;4999033;28;20550;-61
2023/12/16 08:50:22;;;;;;;6.77;4.37;;;7.60;99.90;;;;;;5001197;28;20561;-61
2023/12/16 08:52:50;;;;;;;11.30;4.40;;;7.60;99.90;;;;;;4996684;28;20500;-60
2023/12/16 08:55:18;;;;;;;7.70;4.40;;;7.60;99.90;;;;;;5000488;28;20488;-59
2023/12/16 08:57:46;;;;;;;11.47;5.13;;;7.60;99.90;;;;;;4988993;28;20472;-61
2023/12/16 09:00:16;;;;;;;12.63;5.00;;;7.60;99.90;;;;;;4999228;28;20482;-64
2023/12/16 09:02:44;;;;;;;10.20;5.33;;;7.60;99.90;;;;;;4995621;28;20610;-61
2023/12/16 09:05:13;;;;;;;10.13;5.00;;;7.60;99.90;;;;;;4997402;28;20559;-60
2023/12/16 09:07:41;;;;;;;10.97;5.53;;;7.60;99.90;;;;;;4993543;28;20593;-60
2023/12/16 09:10:10;;;;;;;9.93;5.50;;;7.60;99.90;;;;;;4997287;28;20611;-60
2023/12/16 09:12:38;;;;;;;9.70;6.30;;;7.60;99.90;;;;;;4993737;28;20596;-61
2023/12/16 09:15:07;;;;;;;9.97;6.40;;;7.60;99.90;;;;;;4984556;28;20539;-61
2023/12/16 09:17:37;;;;;;;7.77;6.30;;;7.60;99.90;;;;;;4995633;28;20508;-61
2023/12/16 09:20:07;;;;;;;8.77;7.10;;;7.60;99.90;;;;;;4999350;28;20480;-61
2023/12/16 09:22:35;;;;;;;9.47;6.47;;;7.50;99.90;;;;;;4996173;28;20488;-60
2023/12/16 09:25:04;;;;;;;8.90;6.43;;;7.50;99.90;;;;;;4988409;28;20485;-61
2023/12/16 09:27:32;;;;;;;10.93;7.00;;;7.50;99.90;;;;;;5000520;28;20476;-65
2023/12/16 09:30:00;;;;;;;9.40;7.50;;;7.40;99.90;;;;;;4998501;28;20990;-60
2023/12/16 09:32:28;;;;;;;11.50;7.50;;;7.40;99.90;;;;;;4986276;28;20529;-61
2023/12/16 09:34:57;;;;;;;11.27;7.70;;;7.50;99.90;;;;;;4979003;28;20495;-61
2023/12/16 09:37:25;;;;;;;12.70;8.40;;;7.50;99.90;;;;;;4970740;28;20478;-61
2023/12/16 09:39:53;;;;;;;9.40;7.20;;;7.40;99.90;;;;;;4986179;28;20483;-61
2023/12/16 09:42:24;;;;;;;10.10;8.50;;;7.40;99.90;;;;;;4990289;28;21523;-61
2023/12/16 09:44:57;;;;;;;9.40;7.37;;;7.50;99.90;;;;;;4994511;28;20587;-60
2023/12/16 09:47:25;;;;;;;12.47;8.10;;;7.50;99.90;;;;;;4980330;28;20476;-60
2023/12/16 09:49:57;;;;;;;11.83;7.40;;;7.50;99.90;;;;;;4987783;28;20487;-61
2023/12/16 09:52:27;;;;;;;8.10;7.27;;;7.50;99.90;;;;;;4995267;28;20530;-60
2023/12/16 09:54:55;;;;;;;10.80;8.23;;;7.50;99.90;;;;;;4984272;28;20500;-61
2023/12/16 09:57:24;;;;;;;8.97;7.43;;;7.50;99.90;;;;;;4991023;28;20468;-63
2023/12/16 09:59:55;;;;;;;9.83;8.00;;;7.50;99.90;;;;;;4986133;28;20499;-61
2023/12/16 10:02:27;;;;;;;9.20;8.20;;;7.50;99.90;;;;;;4992335;28;20555;-60
2023/12/16 10:04:57;;;;;;;10.30;8.40;;;7.50;99.90;;;;;;4993761;28;20500;-61
2023/12/16 10:07:27;;;;;;;14.80;9.83;;;7.50;99.90;;;;;;4983411;28;20571;-61
2023/12/16 10:09:55;;;;;;;12.63;9.60;;;7.50;99.90;;;;;;4988873;28;20476;-62
2023/12/16 10:12:23;;;;;;;12.00;9.20;;;7.50;99.90;;;;;;4988920;28;20491;-61
2023/12/16 10:14:52;;;;;;;10.57;8.80;;;7.50;99.90;;;;;;4987254;28;20735;-60
2023/12/16 10:17:21;;;;;;;12.73;9.77;;;7.50;99.90;;;;;;4993689;28;20826;-59
2023/12/16 10:19:49;;;;;;;13.60;9.23;;;7.50;99.90;;;;;;4990108;28;20969;-61
2023/12/16 10:22:19;;;;;;;15.40;9.97;;;7.50;99.90;;;;;;4993408;28;20476;-61
2023/12/16 10:24:48;;;;;;;16.10;11.20;;;7.40;99.90;;;;;;4995703;28;20506;-61
2023/12/16 10:27:18;;;;;;;12.47;9.97;;;7.40;99.90;;;;;;4994870;28;20610;-60
2023/12/16 10:29:47;;;;;;;13.57;10.87;;;7.40;99.90;;;;;;4992339;28;20503;-60
2023/12/16 10:32:33;;;;;;;13.17;10.50;;;7.40;99.90;;;;;;4999628;28;20918;-61
2023/12/16 10:35:02;;;;;;;13.10;10.10;;;7.30;99.90;;;;;;4986443;28;20507;-60
2023/12/16 10:37:31;;;;;;;17.97;10.57;;;7.30;99.90;;;;;;4983111;28;20922;-60
2023/12/16 10:40:01;;;;;;;14.50;11.43;;;7.40;99.90;;;;;;4992693;28;20508;-61
2023/12/16 10:42:29;;;;;;;19.03;11.70;;;7.40;99.90;;;;;;4981363;28;20473;-61
2023/12/16 10:44:57;;;;;;;17.67;11.60;;;7.50;99.90;;;;;;5000016;28;20570;-60
2023/12/16 10:47:28;;;;;;;16.27;11.80;;;7.50;99.90;;;;;;4984012;28;20562;-59
2023/12/16 10:50:00;;;;;;;15.93;11.30;;;7.50;99.90;;;;;;4996203;28;20468;-59
2023/12/16 10:52:32;;;;;;;18.20;11.93;;;7.50;99.90;;;;;;4974732;28;20465;-61
2023/12/16 10:55:03;;;;;;;15.60;12.33;;;7.50;99.90;;;;;;4987616;28;20484;-61
2023/12/16 10:57:40;;;;;;;14.33;12.67;;;7.50;99.90;;;;;;4989248;28;21000;-61
2023/12/16 11:00:11;;;;;;;18.00;12.20;;;7.50;99.90;;;;;;5000672;28;20508;-61
2023/12/16 11:02:44;;;;;;;14.50;11.40;;;7.50;99.90;;;;;;4984454;28;20508;-60
2023/12/16 11:05:20;;;;;;;15.30;11.90;;;7.50;99.90;;;;;;5000270;28;20488;-60
2023/12/16 11:07:49;;;;;;;18.73;12.13;;;7.50;99.90;;;;;;4998307;28;20464;-60
2023/12/16 11:10:19;;;;;;;21.07;13.07;;;7.50;99.90;;;;;;5000165;28;20500;-61
2023/12/16 11:12:47;;;;;;;17.73;13.40;;;7.50;99.90;;;;;;4997436;28;20478;-60
2023/12/16 11:15:17;;;;;;;15.30;12.30;;;7.50;99.90;;;;;;4998892;28;20499;-61
2023/12/16 11:17:56;;;;;;;15.37;12.30;;;7.50;99.90;;;;;;5000461;28;20472;-60
2023/12/16 11:20:32;;;;;;;24.30;12.80;;;7.50;99.90;;;;;;4999758;28;21574;-60
2023/12/16 11:23:01;;;;;;;17.50;12.03;;;7.50;99.90;;;;;;5000157;28;20848;-61
2023/12/16 11:25:33;;;;;;;18.67;13.07;;;7.60;99.90;;;;;;5002005;28;20562;-61
2023/12/16 11:28:02;;;;;;;18.67;12.33;;;7.60;99.90;;;;;;4999398;28;20475;-60
2023/12/16 11:30:32;;;;;;;16.97;12.37;;;7.60;99.90;;;;;;5004143;28;20769;-61
2023/12/16 11:33:00;;;;;;;15.73;12.50;;;7.70;99.90;;;;;;4994669;28;20473;-60
2023/12/16 11:35:51;;;;;;;14.63;12.43;;;7.70;99.90;;;;;;4994187;28;20873;-60
2023/12/16 11:38:38;;;;;;;16.60;13.27;;;7.60;99.90;;;;;;4992216;28;20481;-59
2023/12/16 11:41:08;;;;;;;17.67;12.70;;;7.70;99.90;;;;;;4996287;28;21080;-61
2023/12/16 11:43:50;;;;;;;16.97;14.67;;;7.70;99.90;;;;;;4996861;28;24082;-61
2023/12/16 11:46:34;;;;;;;18.73;15.40;;;7.70;99.90;;;;;;4998987;28;20571;-61
2023/12/16 11:49:03;;;;;;;20.70;16.30;;;7.70;99.90;;;;;;4996381;28;20481;-61
2023/12/16 11:51:34;;;;;;;22.33;15.33;;;7.70;99.90;;;;;;4997895;28;20530;-60
2023/12/16 11:54:04;;;;;;;21.47;15.50;;;7.70;99.90;;;;;;5002722;28;20486;-61
2023/12/16 11:56:34;;;;;;;25.03;18.40;;;7.70;99.90;;;;;;5003630;28;20530;-61
2023/12/16 11:59:03;;;;;;;23.20;17.70;;;7.70;99.90;;;;;;5003393;28;20476;-61
2023/12/16 12:01:32;;;;;;;23.07;17.97;;;7.70;99.90;;;;;;4998409;28;20472;-60
2023/12/16 12:04:02;;;;;;;23.13;18.20;;;7.70;99.90;;;;;;5002543;28;20491;-60
2023/12/16 12:06:30;;;;;;;25.50;18.20;;;7.70;99.90;;;;;;5003621;28;20562;-61
2023/12/16 12:08:58;;;;;;;25.27;17.93;;;7.70;99.90;;;;;;4993834;28;20976;-60
2023/12/16 12:11:26;;;;;;;25.30;18.60;;;7.70;99.90;;;;;;4996683;28;20526;-61
2023/12/16 12:13:56;;;;;;;25.57;18.80;;;7.80;99.90;;;;;;4999940;28;20567;-61
2023/12/16 12:16:28;;;;;;;30.40;18.37;;;7.80;99.90;;;;;;5000630;28;20495;-61
2023/12/16 12:18:57;;;;;;;23.10;18.60;;;7.80;99.90;;;;;;5002657;28;20981;-60
2023/12/16 12:21:25;;;;;;;24.90;19.47;;;7.80;99.90;;;;;;5000656;28;20476;-60
2023/12/16 12:23:53;;;;;;;23.60;18.63;;;7.80;99.90;;;;;;4993719;28;20920;-60
2023/12/16 12:26:21;;;;;;;33.80;19.40;;;7.80;99.90;;;;;;4990459;28;20871;-61
2023/12/16 12:28:58;;;;;;;23.83;18.40;;;7.80;99.90;;;;;;4997893;28;20476;-60
2023/12/16 12:31:30;;;;;;;24.00;17.37;;;7.80;99.90;;;;;;4991946;28;22880;-61
2023/12/16 12:33:58;;;;;;;20.87;17.97;;;7.80;99.90;;;;;;4993561;28;21243;-60
2023/12/16 12:36:26;;;;;;;22.57;18.30;;;7.80;99.90;;;;;;4997519;28;20496;-61
2023/12/16 12:38:55;;;;;;;25.40;18.40;;;7.70;99.90;;;;;;5001917;28;20469;-59
2023/12/16 12:41:23;;;;;;;25.63;20.17;;;7.70;99.90;;;;;;4990969;28;20477;-61
2023/12/16 12:43:51;;;;;;;21.10;18.70;;;7.70;99.90;;;;;;4995269;28;20488;-61
2023/12/16 12:46:21;;;;;;;22.80;18.50;;;7.70;99.90;;;;;;4998698;28;20585;-60
2023/12/16 12:48:55;;;;;;;22.83;17.30;;;7.70;99.90;;;;;;4996862;28;20587;-61
2023/12/16 12:51:23;;;;;;;20.37;17.77;;;7.70;99.90;;;;;;4995492;28;20468;-60
2023/12/16 12:53:59;;;;;;;21.87;16.70;;;7.70;99.90;;;;;;4998600;28;20484;-61
2023/12/16 12:56:29;;;;;;;20.27;17.47;;;7.80;99.90;;;;;;4996812;28;20509;-61
2023/12/16 12:58:59;;;;;;;23.10;18.00;;;7.80;99.90;;;;;;4998658;28;20480;-61